sensor_id;sensor_type;location;lat;lon;timestamp;P1;durP1;ratioP1;P2;durP2;ratioP2
25567;SDS011;13455;51.480;7.594;2022-09-11T00:01:29;29.33;;;24.73;;
25567;SDS011;13455;51.480;7.594;2022-09-11T00:03:55;28.57;;;24.70;;
25567;SDS011;13455;51.480;7.594;2022-09-11T00:06:21;30.33;;;25.40;;
25567;SDS011;13455;51.480;7.594;2022-09-11T00:08:51;31.97;;;25.60;;
25567;SDS011;13455;51.480;7.594;2022-09-11T00:11:18;34.90;;;25.65;;
25567;SDS011;13455;51.480;7.594;2022-09-11T00:13:47;32.22;;;25.95;;
25567;SDS011;13455;51.480;7.594;2022-09-11T00:18:47;36.33;;;27.50;;
25567;SDS011;13455;51.480;7.594;2022-09-11T00:21:14;34.38;;;26.75;;
25567;SDS011;13455;51.480;7.594;2022-09-11T00:23:41;33.87;;;26.90;;
25567;SDS011;13455;51.480;7.594;2022-09-11T00:26:07;34.67;;;27.45;;
25567;SDS011;13455;51.480;7.594;2022-09-11T00:28:33;34.65;;;26.55;;
25567;SDS011;13455;51.480;7.594;2022-09-11T00:31:09;33.35;;;26.98;;
25567;SDS011;13455;51.480;7.594;2022-09-11T00:33:39;32.20;;;26.25;;
25567;SDS011;13455;51.480;7.594;2022-09-11T00:36:16;38.45;;;26.73;;
25567;SDS011;13455;51.480;7.594;2022-09-11T00:38:43;35.60;;;27.23;;
25567;SDS011;13455;51.480;7.594;2022-09-11T00:41:14;33.35;;;26.90;;
25567;SDS011;13455;51.480;7.594;2022-09-11T00:46:47;34.70;;;27.67;;
25567;SDS011;13455;51.480;7.594;2022-09-11T00:52:13;33.38;;;26.45;;
25567;SDS011;13455;51.480;7.594;2022-09-11T00:55:20;34.20;;;26.33;;
25567;SDS011;13455;51.480;7.594;2022-09-11T00:57:46;39.15;;;27.25;;
25567;SDS011;13455;51.480;7.594;2022-09-11T01:00:17;35.88;;;27.48;;
25567;SDS011;13455;51.480;7.594;2022-09-11T01:02:45;34.45;;;27.55;;
25567;SDS011;13455;51.480;7.594;2022-09-11T01:05:13;35.50;;;27.63;;
25567;SDS011;13455;51.480;7.594;2022-09-11T01:07:40;36.70;;;27.23;;
25567;SDS011;13455;51.480;7.594;2022-09-11T01:10:07;34.50;;;26.77;;
25567;SDS011;13455;51.480;7.594;2022-09-11T01:15:07;40.80;;;29.85;;
25567;SDS011;13455;51.480;7.594;2022-09-11T01:29:04;38.70;;;29.60;;
25567;SDS011;13455;51.480;7.594;2022-09-11T01:31:33;46.17;;;31.70;;
25567;SDS011;13455;51.480;7.594;2022-09-11T01:34:10;41.72;;;30.40;;
25567;SDS011;13455;51.480;7.594;2022-09-11T01:36:42;41.97;;;30.80;;
25567;SDS011;13455;51.480;7.594;2022-09-11T01:39:11;47.13;;;32.28;;
25567;SDS011;13455;51.480;7.594;2022-09-11T01:41:48;45.58;;;32.50;;
25567;SDS011;13455;51.480;7.594;2022-09-11T01:44:16;46.28;;;31.50;;
25567;SDS011;13455;51.480;7.594;2022-09-11T01:46:45;44.58;;;30.83;;
25567;SDS011;13455;51.480;7.594;2022-09-11T01:51:51;48.83;;;32.42;;
25567;SDS011;13455;51.480;7.594;2022-09-11T01:54:18;44.72;;;32.58;;
25567;SDS011;13455;51.480;7.594;2022-09-11T01:56:57;45.70;;;32.15;;
25567;SDS011;13455;51.480;7.594;2022-09-11T01:59:26;51.45;;;32.67;;
25567;SDS011;13455;51.480;7.594;2022-09-11T02:02:16;50.70;;;33.30;;
25567;SDS011;13455;51.480;7.594;2022-09-11T02:04:45;44.83;;;32.35;;
25567;SDS011;13455;51.480;7.594;2022-09-11T02:07:14;46.90;;;33.27;;
25567;SDS011;13455;51.480;7.594;2022-09-11T02:10:00;54.17;;;33.85;;
25567;SDS011;13455;51.480;7.594;2022-09-11T02:12:28;51.10;;;33.03;;
25567;SDS011;13455;51.480;7.594;2022-09-11T02:14:56;46.90;;;32.60;;
25567;SDS011;13455;51.480;7.594;2022-09-11T02:17:30;49.22;;;32.42;;
25567;SDS011;13455;51.480;7.594;2022-09-11T02:20:00;48.35;;;32.45;;
25567;SDS011;13455;51.480;7.594;2022-09-11T02:22:26;46.10;;;33.22;;
25567;SDS011;13455;51.480;7.594;2022-09-11T02:24:53;45.25;;;32.58;;
25567;SDS011;13455;51.480;7.594;2022-09-11T02:27:20;46.17;;;32.72;;
25567;SDS011;13455;51.480;7.594;2022-09-11T02:29:47;50.53;;;32.83;;
25567;SDS011;13455;51.480;7.594;2022-09-11T02:32:13;50.33;;;34.45;;
25567;SDS011;13455;51.480;7.594;2022-09-11T02:34:40;51.07;;;33.83;;
25567;SDS011;13455;51.480;7.594;2022-09-11T02:37:25;50.78;;;33.72;;
25567;SDS011;13455;51.480;7.594;2022-09-11T02:40:15;53.60;;;33.97;;
25567;SDS011;13455;51.480;7.594;2022-09-11T02:45:19;55.25;;;33.55;;
25567;SDS011;13455;51.480;7.594;2022-09-11T02:55:40;48.70;;;32.95;;
25567;SDS011;13455;51.480;7.594;2022-09-11T02:58:16;47.40;;;32.72;;
25567;SDS011;13455;51.480;7.594;2022-09-11T03:00:45;46.53;;;32.63;;
25567;SDS011;13455;51.480;7.594;2022-09-11T03:03:12;48.85;;;32.65;;
25567;SDS011;13455;51.480;7.594;2022-09-11T03:05:38;51.60;;;32.97;;
25567;SDS011;13455;51.480;7.594;2022-09-11T03:08:04;44.80;;;32.22;;
25567;SDS011;13455;51.480;7.594;2022-09-11T03:10:31;52.83;;;33.08;;
25567;SDS011;13455;51.480;7.594;2022-09-11T03:12:58;46.08;;;32.17;;
25567;SDS011;13455;51.480;7.594;2022-09-11T03:15:24;46.92;;;33.40;;
25567;SDS011;13455;51.480;7.594;2022-09-11T03:17:51;45.78;;;32.90;;
25567;SDS011;13455;51.480;7.594;2022-09-11T03:20:17;45.15;;;32.85;;
25567;SDS011;13455;51.480;7.594;2022-09-11T03:22:44;47.97;;;32.72;;
25567;SDS011;13455;51.480;7.594;2022-09-11T03:25:10;42.83;;;31.95;;
25567;SDS011;13455;51.480;7.594;2022-09-11T03:27:36;45.57;;;32.37;;
25567;SDS011;13455;51.480;7.594;2022-09-11T03:30:06;46.47;;;33.38;;
25567;SDS011;13455;51.480;7.594;2022-09-11T03:32:32;43.80;;;32.00;;
25567;SDS011;13455;51.480;7.594;2022-09-11T03:34:58;49.45;;;32.47;;
25567;SDS011;13455;51.480;7.594;2022-09-11T03:37:26;42.93;;;32.40;;
25567;SDS011;13455;51.480;7.594;2022-09-11T03:39:52;46.50;;;33.58;;
25567;SDS011;13455;51.480;7.594;2022-09-11T03:42:19;53.13;;;36.40;;
25567;SDS011;13455;51.480;7.594;2022-09-11T03:44:45;65.78;;;40.85;;
25567;SDS011;13455;51.480;7.594;2022-09-11T03:47:11;63.38;;;40.00;;
25567;SDS011;13455;51.480;7.594;2022-09-11T03:49:37;65.63;;;39.22;;
25567;SDS011;13455;51.480;7.594;2022-09-11T03:52:04;61.92;;;38.33;;
25567;SDS011;13455;51.480;7.594;2022-09-11T03:54:30;61.03;;;37.53;;
25567;SDS011;13455;51.480;7.594;2022-09-11T03:56:56;73.75;;;41.22;;
25567;SDS011;13455;51.480;7.594;2022-09-11T03:59:23;77.82;;;43.80;;
25567;SDS011;13455;51.480;7.594;2022-09-11T04:01:49;75.47;;;43.80;;
25567;SDS011;13455;51.480;7.594;2022-09-11T04:04:15;76.15;;;43.38;;
25567;SDS011;13455;51.480;7.594;2022-09-11T04:06:42;74.57;;;43.00;;
25567;SDS011;13455;51.480;7.594;2022-09-11T04:09:08;75.47;;;41.88;;
25567;SDS011;13455;51.480;7.594;2022-09-11T04:11:34;75.47;;;43.13;;
25567;SDS011;13455;51.480;7.594;2022-09-11T04:14:03;76.90;;;45.33;;
25567;SDS011;13455;51.480;7.594;2022-09-11T04:16:29;79.60;;;46.90;;
25567;SDS011;13455;51.480;7.594;2022-09-11T04:18:57;83.95;;;47.72;;
25567;SDS011;13455;51.480;7.594;2022-09-11T04:21:23;78.55;;;45.83;;
25567;SDS011;13455;51.480;7.594;2022-09-11T04:23:50;81.97;;;45.83;;
25567;SDS011;13455;51.480;7.594;2022-09-11T04:26:19;85.85;;;47.20;;
25567;SDS011;13455;51.480;7.594;2022-09-11T04:28:45;86.78;;;47.33;;
25567;SDS011;13455;51.480;7.594;2022-09-11T04:31:11;85.15;;;47.75;;
25567;SDS011;13455;51.480;7.594;2022-09-11T04:33:37;94.15;;;49.42;;
25567;SDS011;13455;51.480;7.594;2022-09-11T04:36:07;87.53;;;47.10;;
25567;SDS011;13455;51.480;7.594;2022-09-11T04:38:34;91.18;;;46.45;;
25567;SDS011;13455;51.480;7.594;2022-09-11T04:41:01;77.80;;;46.47;;
25567;SDS011;13455;51.480;7.594;2022-09-11T04:43:28;78.87;;;45.93;;
25567;SDS011;13455;51.480;7.594;2022-09-11T04:46:02;82.38;;;47.15;;
25567;SDS011;13455;51.480;7.594;2022-09-11T04:48:29;89.57;;;47.00;;
25567;SDS011;13455;51.480;7.594;2022-09-11T04:50:59;87.03;;;46.58;;
25567;SDS011;13455;51.480;7.594;2022-09-11T04:53:25;100.10;;;47.03;;
25567;SDS011;13455;51.480;7.594;2022-09-11T04:55:59;81.07;;;46.00;;
25567;SDS011;13455;51.480;7.594;2022-09-11T04:58:25;89.65;;;45.53;;
25567;SDS011;13455;51.480;7.594;2022-09-11T05:00:51;82.35;;;44.38;;
25567;SDS011;13455;51.480;7.594;2022-09-11T05:03:17;78.53;;;44.88;;
25567;SDS011;13455;51.480;7.594;2022-09-11T05:05:44;82.55;;;45.15;;
25567;SDS011;13455;51.480;7.594;2022-09-11T05:08:10;76.50;;;46.08;;
25567;SDS011;13455;51.480;7.594;2022-09-11T05:10:37;83.43;;;45.42;;
25567;SDS011;13455;51.480;7.594;2022-09-11T05:13:03;74.33;;;43.87;;
25567;SDS011;13455;51.480;7.594;2022-09-11T05:15:29;106.90;;;43.55;;
25567;SDS011;13455;51.480;7.594;2022-09-11T05:17:56;189.43;;;42.38;;
25567;SDS011;13455;51.480;7.594;2022-09-11T05:20:22;78.43;;;41.93;;
25567;SDS011;13455;51.480;7.594;2022-09-11T05:22:49;83.22;;;43.30;;
25567;SDS011;13455;51.480;7.594;2022-09-11T05:25:15;73.75;;;40.65;;
25567;SDS011;13455;51.480;7.594;2022-09-11T05:27:42;76.80;;;42.00;;
25567;SDS011;13455;51.480;7.594;2022-09-11T05:30:08;131.70;;;44.45;;
25567;SDS011;13455;51.480;7.594;2022-09-11T05:32:34;94.47;;;44.20;;
25567;SDS011;13455;51.480;7.594;2022-09-11T05:35:00;124.97;;;44.67;;
25567;SDS011;13455;51.480;7.594;2022-09-11T05:37:26;87.03;;;43.88;;
25567;SDS011;13455;51.480;7.594;2022-09-11T05:39:52;103.65;;;43.95;;
25567;SDS011;13455;51.480;7.594;2022-09-11T05:42:18;81.57;;;44.72;;
25567;SDS011;13455;51.480;7.594;2022-09-11T05:44:46;79.25;;;44.05;;
25567;SDS011;13455;51.480;7.594;2022-09-11T05:47:12;92.38;;;46.85;;
25567;SDS011;13455;51.480;7.594;2022-09-11T05:49:38;92.30;;;45.55;;
25567;SDS011;13455;51.480;7.594;2022-09-11T05:52:04;98.45;;;46.28;;
25567;SDS011;13455;51.480;7.594;2022-09-11T05:54:30;93.93;;;45.28;;
25567;SDS011;13455;51.480;7.594;2022-09-11T05:56:56;101.95;;;45.08;;
25567;SDS011;13455;51.480;7.594;2022-09-11T05:59:22;81.95;;;43.58;;
25567;SDS011;13455;51.480;7.594;2022-09-11T06:01:50;90.45;;;44.50;;
25567;SDS011;13455;51.480;7.594;2022-09-11T06:04:16;82.43;;;45.33;;
25567;SDS011;13455;51.480;7.594;2022-09-11T06:06:42;76.93;;;42.88;;
25567;SDS011;13455;51.480;7.594;2022-09-11T06:09:11;74.67;;;42.43;;
25567;SDS011;13455;51.480;7.594;2022-09-11T06:11:37;74.53;;;42.45;;
25567;SDS011;13455;51.480;7.594;2022-09-11T06:14:03;75.13;;;42.03;;
25567;SDS011;13455;51.480;7.594;2022-09-11T06:16:29;70.95;;;41.53;;
25567;SDS011;13455;51.480;7.594;2022-09-11T06:18:56;74.40;;;42.45;;
25567;SDS011;13455;51.480;7.594;2022-09-11T06:21:22;71.28;;;41.13;;
25567;SDS011;13455;51.480;7.594;2022-09-11T06:23:49;73.47;;;41.38;;
25567;SDS011;13455;51.480;7.594;2022-09-11T06:26:16;69.40;;;40.97;;
25567;SDS011;13455;51.480;7.594;2022-09-11T06:28:43;73.80;;;41.63;;
25567;SDS011;13455;51.480;7.594;2022-09-11T06:31:10;72.95;;;43.25;;
25567;SDS011;13455;51.480;7.594;2022-09-11T06:33:38;77.50;;;43.40;;
25567;SDS011;13455;51.480;7.594;2022-09-11T06:36:05;71.57;;;42.37;;
25567;SDS011;13455;51.480;7.594;2022-09-11T06:38:31;72.55;;;41.88;;
25567;SDS011;13455;51.480;7.594;2022-09-11T06:41:00;72.10;;;41.58;;
25567;SDS011;13455;51.480;7.594;2022-09-11T06:43:29;71.85;;;42.05;;
25567;SDS011;13455;51.480;7.594;2022-09-11T06:46:02;74.50;;;43.10;;
25567;SDS011;13455;51.480;7.594;2022-09-11T06:48:28;74.47;;;42.88;;
25567;SDS011;13455;51.480;7.594;2022-09-11T06:50:54;73.88;;;44.33;;
25567;SDS011;13455;51.480;7.594;2022-09-11T06:53:21;76.15;;;43.97;;
25567;SDS011;13455;51.480;7.594;2022-09-11T06:55:47;77.15;;;44.30;;
25567;SDS011;13455;51.480;7.594;2022-09-11T06:58:13;78.07;;;44.35;;
25567;SDS011;13455;51.480;7.594;2022-09-11T07:00:39;81.03;;;45.78;;
25567;SDS011;13455;51.480;7.594;2022-09-11T07:03:05;86.45;;;47.33;;
25567;SDS011;13455;51.480;7.594;2022-09-11T07:05:31;83.60;;;46.42;;
25567;SDS011;13455;51.480;7.594;2022-09-11T07:07:57;81.25;;;46.15;;
25567;SDS011;13455;51.480;7.594;2022-09-11T07:10:23;80.03;;;45.97;;
25567;SDS011;13455;51.480;7.594;2022-09-11T07:12:52;77.65;;;44.97;;
25567;SDS011;13455;51.480;7.594;2022-09-11T07:15:19;80.78;;;45.95;;
25567;SDS011;13455;51.480;7.594;2022-09-11T07:17:45;82.18;;;45.78;;
25567;SDS011;13455;51.480;7.594;2022-09-11T07:20:12;83.90;;;46.83;;
25567;SDS011;13455;51.480;7.594;2022-09-11T07:22:38;80.20;;;46.25;;
25567;SDS011;13455;51.480;7.594;2022-09-11T07:25:04;80.70;;;46.17;;
25567;SDS011;13455;51.480;7.594;2022-09-11T07:27:31;80.65;;;45.42;;
25567;SDS011;13455;51.480;7.594;2022-09-11T07:29:57;81.65;;;45.22;;
25567;SDS011;13455;51.480;7.594;2022-09-11T07:32:23;89.97;;;48.05;;
25567;SDS011;13455;51.480;7.594;2022-09-11T07:34:51;90.50;;;49.13;;
25567;SDS011;13455;51.480;7.594;2022-09-11T07:37:17;90.53;;;49.55;;
25567;SDS011;13455;51.480;7.594;2022-09-11T07:39:42;88.57;;;49.33;;
25567;SDS011;13455;51.480;7.594;2022-09-11T07:42:09;88.80;;;48.23;;
25567;SDS011;13455;51.480;7.594;2022-09-11T07:44:35;93.13;;;50.28;;
25567;SDS011;13455;51.480;7.594;2022-09-11T07:47:01;89.22;;;48.58;;
25567;SDS011;13455;51.480;7.594;2022-09-11T07:49:27;91.32;;;49.53;;
25567;SDS011;13455;51.480;7.594;2022-09-11T07:51:53;100.35;;;50.65;;
25567;SDS011;13455;51.480;7.594;2022-09-11T07:54:20;94.85;;;51.35;;
25567;SDS011;13455;51.480;7.594;2022-09-11T07:56:46;90.20;;;49.03;;
25567;SDS011;13455;51.480;7.594;2022-09-11T07:59:12;93.18;;;50.25;;
25567;SDS011;13455;51.480;7.594;2022-09-11T08:01:38;88.70;;;50.13;;
25567;SDS011;13455;51.480;7.594;2022-09-11T08:04:06;90.70;;;49.83;;
25567;SDS011;13455;51.480;7.594;2022-09-11T08:06:35;96.23;;;50.60;;
25567;SDS011;13455;51.480;7.594;2022-09-11T08:09:03;94.47;;;50.95;;
25567;SDS011;13455;51.480;7.594;2022-09-11T08:11:29;88.60;;;48.70;;
25567;SDS011;13455;51.480;7.594;2022-09-11T08:13:56;86.35;;;47.15;;
25567;SDS011;13455;51.480;7.594;2022-09-11T08:16:23;83.00;;;46.60;;
25567;SDS011;13455;51.480;7.594;2022-09-11T08:18:49;81.60;;;45.83;;
25567;SDS011;13455;51.480;7.594;2022-09-11T08:21:16;84.45;;;45.75;;
25567;SDS011;13455;51.480;7.594;2022-09-11T08:23:42;80.88;;;46.00;;
25567;SDS011;13455;51.480;7.594;2022-09-11T08:26:42;86.77;;;45.43;;
25567;SDS011;13455;51.480;7.594;2022-09-11T08:29:01;94.55;;;48.33;;
25567;SDS011;13455;51.480;7.594;2022-09-11T08:31:27;95.47;;;50.40;;
25567;SDS011;13455;51.480;7.594;2022-09-11T08:33:54;99.78;;;51.53;;
25567;SDS011;13455;51.480;7.594;2022-09-11T08:36:20;129.20;;;46.15;;
25567;SDS011;13455;51.480;7.594;2022-09-11T08:38:46;177.43;;;44.80;;
25567;SDS011;13455;51.480;7.594;2022-09-11T08:41:34;90.10;;;44.42;;
25567;SDS011;13455;51.480;7.594;2022-09-11T08:44:06;138.38;;;47.05;;
25567;SDS011;13455;51.480;7.594;2022-09-11T08:46:37;88.13;;;46.33;;
25567;SDS011;13455;51.480;7.594;2022-09-11T08:49:23;99.05;;;46.40;;
25567;SDS011;13455;51.480;7.594;2022-09-11T08:51:50;213.30;;;45.13;;
25567;SDS011;13455;51.480;7.594;2022-09-11T08:54:21;85.97;;;45.80;;
25567;SDS011;13455;51.480;7.594;2022-09-11T08:56:51;84.78;;;45.17;;
25567;SDS011;13455;51.480;7.594;2022-09-11T08:59:22;107.03;;;41.67;;
25567;SDS011;13455;51.480;7.594;2022-09-11T09:15:07;79.85;;;39.35;;
25567;SDS011;13455;51.480;7.594;2022-09-11T09:17:39;68.22;;;36.85;;
25567;SDS011;13455;51.480;7.594;2022-09-11T09:25:03;67.40;;;37.47;;
25567;SDS011;13455;51.480;7.594;2022-09-11T09:27:33;70.65;;;35.60;;
25567;SDS011;13455;51.480;7.594;2022-09-11T09:30:01;68.80;;;34.25;;
25567;SDS011;13455;51.480;7.594;2022-09-11T09:32:30;52.42;;;32.17;;
25567;SDS011;13455;51.480;7.594;2022-09-11T09:35:01;55.80;;;31.85;;
25567;SDS011;13455;51.480;7.594;2022-09-11T09:37:28;66.60;;;34.33;;
25567;SDS011;13455;51.480;7.594;2022-09-11T09:39:54;74.13;;;34.30;;
25567;SDS011;13455;51.480;7.594;2022-09-11T09:47:28;68.32;;;34.78;;
25567;SDS011;13455;51.480;7.594;2022-09-11T09:49:54;70.30;;;36.75;;
25567;SDS011;13455;51.480;7.594;2022-09-11T09:52:23;77.85;;;38.40;;
25567;SDS011;13455;51.480;7.594;2022-09-11T09:57:32;76.68;;;39.05;;
25567;SDS011;13455;51.480;7.594;2022-09-11T10:00:06;61.83;;;34.50;;
25567;SDS011;13455;51.480;7.594;2022-09-11T10:08:05;46.33;;;30.95;;
25567;SDS011;13455;51.480;7.594;2022-09-11T10:13:04;41.42;;;28.92;;
25567;SDS011;13455;51.480;7.594;2022-09-11T10:15:36;42.17;;;29.95;;
25567;SDS011;13455;51.480;7.594;2022-09-11T10:20:47;44.40;;;32.03;;
25567;SDS011;13455;51.480;7.594;2022-09-11T10:23:23;45.50;;;32.63;;
25567;SDS011;13455;51.480;7.594;2022-09-11T10:25:50;44.85;;;32.30;;
25567;SDS011;13455;51.480;7.594;2022-09-11T10:28:17;45.05;;;31.98;;
25567;SDS011;13455;51.480;7.594;2022-09-11T10:30:55;40.10;;;29.17;;
25567;SDS011;13455;51.480;7.594;2022-09-11T10:33:30;40.05;;;29.73;;
25567;SDS011;13455;51.480;7.594;2022-09-11T10:35:59;36.47;;;26.77;;
25567;SDS011;13455;51.480;7.594;2022-09-11T10:38:30;33.40;;;24.50;;
25567;SDS011;13455;51.480;7.594;2022-09-11T10:41:04;36.57;;;25.57;;
25567;SDS011;13455;51.480;7.594;2022-09-11T10:43:49;31.05;;;23.25;;
25567;SDS011;13455;51.480;7.594;2022-09-11T10:48:49;28.70;;;22.83;;
25567;SDS011;13455;51.480;7.594;2022-09-11T10:51:16;28.65;;;21.67;;
25567;SDS011;13455;51.480;7.594;2022-09-11T10:53:49;26.63;;;21.35;;
25567;SDS011;13455;51.480;7.594;2022-09-11T10:56:21;26.15;;;20.45;;
25567;SDS011;13455;51.480;7.594;2022-09-11T10:58:46;25.08;;;19.67;;
25567;SDS011;13455;51.480;7.594;2022-09-11T11:01:15;23.90;;;18.90;;
25567;SDS011;13455;51.480;7.594;2022-09-11T11:03:41;24.88;;;19.73;;
25567;SDS011;13455;51.480;7.594;2022-09-11T11:06:25;27.98;;;20.23;;
25567;SDS011;13455;51.480;7.594;2022-09-11T11:09:24;25.70;;;20.55;;
25567;SDS011;13455;51.480;7.594;2022-09-11T11:22:24;24.33;;;19.33;;
25567;SDS011;13455;51.480;7.594;2022-09-11T11:30:16;25.58;;;20.10;;
25567;SDS011;13455;51.480;7.594;2022-09-11T11:38:19;26.55;;;20.98;;
25567;SDS011;13455;51.480;7.594;2022-09-11T11:40:48;24.52;;;21.35;;
25567;SDS011;13455;51.480;7.594;2022-09-11T11:43:15;24.38;;;20.90;;
25567;SDS011;13455;51.480;7.594;2022-09-11T11:45:46;24.05;;;20.02;;
25567;SDS011;13455;51.480;7.594;2022-09-11T11:50:50;22.50;;;17.80;;
25567;SDS011;13455;51.480;7.594;2022-09-11T11:53:28;24.98;;;19.75;;
25567;SDS011;13455;51.480;7.594;2022-09-11T11:55:57;24.50;;;20.65;;
25567;SDS011;13455;51.480;7.594;2022-09-11T11:58:40;27.05;;;23.27;;
25567;SDS011;13455;51.480;7.594;2022-09-11T12:06:33;25.13;;;20.02;;
25567;SDS011;13455;51.480;7.594;2022-09-11T12:09:00;24.92;;;21.63;;
25567;SDS011;13455;51.480;7.594;2022-09-11T12:11:30;25.73;;;22.02;;
25567;SDS011;13455;51.480;7.594;2022-09-11T12:13:56;25.35;;;21.08;;
25567;SDS011;13455;51.480;7.594;2022-09-11T12:16:26;25.97;;;20.77;;
25567;SDS011;13455;51.480;7.594;2022-09-11T12:24:22;26.27;;;21.25;;
25567;SDS011;13455;51.480;7.594;2022-09-11T12:32:42;23.83;;;18.88;;
25567;SDS011;13455;51.480;7.594;2022-09-11T12:40:25;21.87;;;17.37;;
25567;SDS011;13455;51.480;7.594;2022-09-11T12:43:56;22.93;;;18.13;;
25567;SDS011;13455;51.480;7.594;2022-09-11T12:45:51;21.38;;;16.85;;
25567;SDS011;13455;51.480;7.594;2022-09-11T12:48:18;19.63;;;16.27;;
25567;SDS011;13455;51.480;7.594;2022-09-11T12:50:49;21.55;;;16.95;;
25567;SDS011;13455;51.480;7.594;2022-09-11T12:53:30;18.70;;;15.60;;
25567;SDS011;13455;51.480;7.594;2022-09-11T12:56:06;19.20;;;15.15;;
25567;SDS011;13455;51.480;7.594;2022-09-11T12:58:40;18.45;;;15.68;;
25567;SDS011;13455;51.480;7.594;2022-09-11T13:03:37;17.45;;;14.68;;
25567;SDS011;13455;51.480;7.594;2022-09-11T13:06:17;16.92;;;13.77;;
25567;SDS011;13455;51.480;7.594;2022-09-11T13:08:52;16.83;;;13.48;;
25567;SDS011;13455;51.480;7.594;2022-09-11T13:13:58;16.60;;;13.53;;
25567;SDS011;13455;51.480;7.594;2022-09-11T13:16:25;16.15;;;13.30;;
25567;SDS011;13455;51.480;7.594;2022-09-11T13:21:38;15.13;;;11.57;;
25567;SDS011;13455;51.480;7.594;2022-09-11T13:24:24;14.00;;;10.95;;
25567;SDS011;13455;51.480;7.594;2022-09-11T13:26:59;11.93;;;10.60;;
25567;SDS011;13455;51.480;7.594;2022-09-11T13:29:27;12.52;;;10.80;;
25567;SDS011;13455;51.480;7.594;2022-09-11T13:31:54;11.70;;;10.35;;
25567;SDS011;13455;51.480;7.594;2022-09-11T13:34:22;12.43;;;10.87;;
25567;SDS011;13455;51.480;7.594;2022-09-11T13:36:49;12.30;;;10.55;;
25567;SDS011;13455;51.480;7.594;2022-09-11T13:39:16;12.23;;;10.23;;
25567;SDS011;13455;51.480;7.594;2022-09-11T13:41:43;13.60;;;11.30;;
25567;SDS011;13455;51.480;7.594;2022-09-11T13:44:25;11.50;;;10.27;;
25567;SDS011;13455;51.480;7.594;2022-09-11T13:46:55;11.13;;;9.85;;
25567;SDS011;13455;51.480;7.594;2022-09-11T13:51:55;13.37;;;10.13;;
25567;SDS011;13455;51.480;7.594;2022-09-11T13:54:28;11.23;;;9.02;;
25567;SDS011;13455;51.480;7.594;2022-09-11T14:02:22;10.57;;;8.63;;
25567;SDS011;13455;51.480;7.594;2022-09-11T14:07:28;11.05;;;7.80;;
25567;SDS011;13455;51.480;7.594;2022-09-11T14:09:58;9.97;;;7.30;;
25567;SDS011;13455;51.480;7.594;2022-09-11T14:12:31;8.50;;;7.15;;
25567;SDS011;13455;51.480;7.594;2022-09-11T14:15:02;9.20;;;6.47;;
25567;SDS011;13455;51.480;7.594;2022-09-11T14:17:31;8.90;;;7.00;;
25567;SDS011;13455;51.480;7.594;2022-09-11T14:19:57;7.22;;;6.47;;
25567;SDS011;13455;51.480;7.594;2022-09-11T14:22:27;8.77;;;6.43;;
25567;SDS011;13455;51.480;7.594;2022-09-11T14:27:33;9.00;;;7.00;;
25567;SDS011;13455;51.480;7.594;2022-09-11T14:30:21;7.75;;;6.70;;
25567;SDS011;13455;51.480;7.594;2022-09-11T14:33:14;7.75;;;6.60;;
25567;SDS011;13455;51.480;7.594;2022-09-11T14:35:40;8.07;;;6.53;;
25567;SDS011;13455;51.480;7.594;2022-09-11T14:38:08;7.22;;;6.20;;
25567;SDS011;13455;51.480;7.594;2022-09-11T14:40:36;7.10;;;6.25;;
25567;SDS011;13455;51.480;7.594;2022-09-11T14:43:11;8.02;;;6.70;;
25567;SDS011;13455;51.480;7.594;2022-09-11T14:45:37;7.97;;;6.35;;
25567;SDS011;13455;51.480;7.594;2022-09-11T14:48:07;7.43;;;5.93;;
25567;SDS011;13455;51.480;7.594;2022-09-11T14:50:36;7.78;;;5.47;;
25567;SDS011;13455;51.480;7.594;2022-09-11T14:53:02;7.07;;;5.97;;
25567;SDS011;13455;51.480;7.594;2022-09-11T14:55:28;8.33;;;5.60;;
25567;SDS011;13455;51.480;7.594;2022-09-11T14:57:54;6.65;;;5.35;;
25567;SDS011;13455;51.480;7.594;2022-09-11T15:00:20;7.07;;;5.70;;
25567;SDS011;13455;51.480;7.594;2022-09-11T15:02:45;6.93;;;5.40;;
25567;SDS011;13455;51.480;7.594;2022-09-11T15:05:13;6.35;;;5.50;;
25567;SDS011;13455;51.480;7.594;2022-09-11T15:07:40;7.65;;;5.00;;
25567;SDS011;13455;51.480;7.594;2022-09-11T15:10:09;7.63;;;4.93;;
25567;SDS011;13455;51.480;7.594;2022-09-11T15:12:35;6.43;;;5.47;;
25567;SDS011;13455;51.480;7.594;2022-09-11T15:15:01;7.10;;;5.38;;
25567;SDS011;13455;51.480;7.594;2022-09-11T15:17:28;6.82;;;5.13;;
25567;SDS011;13455;51.480;7.594;2022-09-11T15:19:55;6.90;;;5.10;;
25567;SDS011;13455;51.480;7.594;2022-09-11T15:22:23;7.13;;;5.85;;
25567;SDS011;13455;51.480;7.594;2022-09-11T15:24:49;7.00;;;5.85;;
25567;SDS011;13455;51.480;7.594;2022-09-11T15:27:15;7.53;;;5.80;;
25567;SDS011;13455;51.480;7.594;2022-09-11T15:29:43;9.00;;;5.80;;
25567;SDS011;13455;51.480;7.594;2022-09-11T15:32:09;8.10;;;6.30;;
25567;SDS011;13455;51.480;7.594;2022-09-11T15:34:36;7.78;;;6.00;;
25567;SDS011;13455;51.480;7.594;2022-09-11T15:37:02;7.95;;;5.78;;
25567;SDS011;13455;51.480;7.594;2022-09-11T15:39:29;7.15;;;5.50;;
25567;SDS011;13455;51.480;7.594;2022-09-11T15:41:55;6.13;;;4.90;;
25567;SDS011;13455;51.480;7.594;2022-09-11T15:44:22;7.97;;;5.35;;
25567;SDS011;13455;51.480;7.594;2022-09-11T15:46:50;7.85;;;5.80;;
25567;SDS011;13455;51.480;7.594;2022-09-11T15:49:19;7.45;;;5.90;;
25567;SDS011;13455;51.480;7.594;2022-09-11T15:51:46;5.95;;;4.95;;
25567;SDS011;13455;51.480;7.594;2022-09-11T15:54:13;7.38;;;5.50;;
25567;SDS011;13455;51.480;7.594;2022-09-11T15:56:39;7.43;;;5.20;;
25567;SDS011;13455;51.480;7.594;2022-09-11T15:59:06;6.15;;;4.75;;
25567;SDS011;13455;51.480;7.594;2022-09-11T16:01:34;6.45;;;5.00;;
25567;SDS011;13455;51.480;7.594;2022-09-11T16:04:05;6.18;;;4.50;;
25567;SDS011;13455;51.480;7.594;2022-09-11T16:06:34;7.07;;;5.10;;
25567;SDS011;13455;51.480;7.594;2022-09-11T16:09:03;7.10;;;4.75;;
25567;SDS011;13455;51.480;7.594;2022-09-11T16:11:33;5.93;;;4.47;;
25567;SDS011;13455;51.480;7.594;2022-09-11T16:14:00;5.78;;;4.32;;
25567;SDS011;13455;51.480;7.594;2022-09-11T16:16:26;5.13;;;4.13;;
25567;SDS011;13455;51.480;7.594;2022-09-11T16:18:52;5.70;;;4.30;;
25567;SDS011;13455;51.480;7.594;2022-09-11T16:21:19;5.13;;;4.03;;
25567;SDS011;13455;51.480;7.594;2022-09-11T16:23:45;5.07;;;3.97;;
25567;SDS011;13455;51.480;7.594;2022-09-11T16:26:13;5.78;;;4.13;;
25567;SDS011;13455;51.480;7.594;2022-09-11T16:28:44;5.40;;;4.07;;
25567;SDS011;13455;51.480;7.594;2022-09-11T16:31:11;5.03;;;3.90;;
25567;SDS011;13455;51.480;7.594;2022-09-11T16:33:38;5.75;;;3.63;;
25567;SDS011;13455;51.480;7.594;2022-09-11T16:36:09;5.18;;;3.90;;
25567;SDS011;13455;51.480;7.594;2022-09-11T16:38:37;4.75;;;3.70;;
25567;SDS011;13455;51.480;7.594;2022-09-11T16:43:39;5.43;;;4.13;;
25567;SDS011;13455;51.480;7.594;2022-09-11T16:46:06;5.38;;;3.90;;
25567;SDS011;13455;51.480;7.594;2022-09-11T16:48:33;6.20;;;4.00;;
25567;SDS011;13455;51.480;7.594;2022-09-11T16:51:01;5.63;;;4.00;;
25567;SDS011;13455;51.480;7.594;2022-09-11T16:53:28;6.15;;;4.20;;
25567;SDS011;13455;51.480;7.594;2022-09-11T16:55:55;6.07;;;4.38;;
25567;SDS011;13455;51.480;7.594;2022-09-11T16:58:22;5.82;;;3.92;;
25567;SDS011;13455;51.480;7.594;2022-09-11T17:00:48;6.55;;;4.30;;